Liberty — WDD2088 — position and weather

sailwx.info

Track history (hours):
 
Tides and Currents Weather Stations Pressure Air Temp Water Temp Dewpoint Dewpoint Depression Visibility Wind Speed Wind Dir Waves Ship Positions

Liberty

Owner: HORIZON 82 LEASING LLC, Provo, UT. More information available from US FCC via Universal Licensing System.

Last reported at 2016-Jul-28 11:33 UTC. Time now 2016-Jul-28 12:23 UTC.
Position N 48°37' W 123°09'.

Length 25 m; draft 2.2 m.

MMSI: 367110770.

Date/timePositionNaut miles runAvg speedWind from/ knotsBaromVisibWave heightAir tempDewpointWater temp
2016-Jul-28 11:33N 48°37' W 123°09'0 0.0
2016-Jul-28 10:33N 48°37' W 123°09'0 0.0
2016-Jul-28 09:33N 48°37' W 123°09'0 0.0
2016-Jul-28 08:15N 48°37' W 123°09'0 0.0
2016-Jul-28 07:33N 48°37' W 123°09'0 0.0
2016-Jul-28 06:27N 48°37' W 123°09'0 0.0
2016-Jul-28 03:33N 48°37' W 123°09'0 0.0
2016-Jul-28 02:28N 48°37' W 123°09'0 0.0
2016-Jul-28 01:27N 48°37' W 123°09'0 0.0
2016-Jul-28 00:22N 48°37' W 123°09'0 0.0
2016-Jul-27 23:16N 48°37' W 123°09'0 0.0
2016-Jul-27 22:27N 48°37' W 123°09'0 0.0
2016-Jul-27 21:21N 48°37' W 123°09'0 0.0
2016-Jul-27 20:09N 48°37' W 123°09'0 0.1
2016-Jul-27 19:34N 48°37' W 123°09'1 1.2
2016-Jul-27 18:33N 48°38' W 123°10'3 0.3
2016-Jul-27 07:20N 48°41' W 123°12'0 0.0
2016-Jul-27 04:20N 48°41' W 123°12'0 0.0
2016-Jul-27 02:32N 48°41' W 123°12'0 0.0
2016-Jul-27 01:29N 48°41' W 123°12'0 0.0
2016-Jul-26 20:14N 48°41' W 123°12'0 0.1
2016-Jul-26 17:11N 48°41' W 123°12'6 9.3
2016-Jul-26 16:32N 48°43' W 123°03'7 0.3
2016-Jul-25 20:07N 48°46' W 122°53'6 9.8
2016-Jul-25 19:32N 48°42' W 122°47'3 3.1
2016-Jul-25 18:33N 48°40' W 122°43'10 9.9
2016-Jul-25 17:34N 48°32' W 122°34'5 0.3
2016-Jul-25 01:32N 48°27' W 122°31'0 0.0
2016-Jul-25 00:11N 48°27' W 122°31'0 0.0
2016-Jul-24 23:14N 48°27' W 122°31'0 0.0
2016-Jul-24 21:20N 48°27' W 122°31'0 0.0
2016-Jul-24 20:21N 48°27' W 122°31'0 0.0
2016-Jul-24 19:26N 48°27' W 122°31'0 0.0
2016-Jul-24 17:32N 48°27' W 122°31'0 0.0
2016-Jul-24 14:32N 48°27' W 122°31'0 0.0
2016-Jul-24 12:16N 48°27' W 122°31'0 0.0
2016-Jul-22 22:14N 48°27' W 122°31'  
Track history (hours):
 
Tides and Currents Weather Stations Pressure Air Temp Water Temp Dewpoint Dewpoint Depression Visibility Wind Speed Wind Dir Waves Ship Positions

Liberty

Owner: HORIZON 82 LEASING LLC, Provo, UT. More information available from US FCC via Universal Licensing System.

Last reported at 2016-Jul-28 11:33 UTC. Time now 2016-Jul-28 12:23 UTC.
Position N 48°37' W 123°09'.

Length 25 m; draft 2.2 m.

MMSI: 367110770.

Date/timePositionNaut miles runAvg speedWind from/ knotsBaromVisibWave heightAir tempDewpointWater temp
2016-Jul-28 11:33N 48°37' W 123°09'0 0.0
2016-Jul-28 10:33N 48°37' W 123°09'0 0.0
2016-Jul-28 09:33N 48°37' W 123°09'0 0.0
2016-Jul-28 08:15N 48°37' W 123°09'0 0.0
2016-Jul-28 07:33N 48°37' W 123°09'0 0.0
2016-Jul-28 06:27N 48°37' W 123°09'0 0.0
2016-Jul-28 03:33N 48°37' W 123°09'0 0.0
2016-Jul-28 02:28N 48°37' W 123°09'0 0.0
2016-Jul-28 01:27N 48°37' W 123°09'0 0.0
2016-Jul-28 00:22N 48°37' W 123°09'0 0.0
2016-Jul-27 23:16N 48°37' W 123°09'0 0.0
2016-Jul-27 22:27N 48°37' W 123°09'0 0.0
2016-Jul-27 21:21N 48°37' W 123°09'0 0.0
2016-Jul-27 20:09N 48°37' W 123°09'0 0.1
2016-Jul-27 19:34N 48°37' W 123°09'1 1.2
2016-Jul-27 18:33N 48°38' W 123°10'3 0.3
2016-Jul-27 07:20N 48°41' W 123°12'0 0.0
2016-Jul-27 04:20N 48°41' W 123°12'0 0.0
2016-Jul-27 02:32N 48°41' W 123°12'0 0.0
2016-Jul-27 01:29N 48°41' W 123°12'0 0.0
2016-Jul-26 20:14N 48°41' W 123°12'0 0.1
2016-Jul-26 17:11N 48°41' W 123°12'6 9.3
2016-Jul-26 16:32N 48°43' W 123°03'7 0.3
2016-Jul-25 20:07N 48°46' W 122°53'6 9.8
2016-Jul-25 19:32N 48°42' W 122°47'3 3.1
2016-Jul-25 18:33N 48°40' W 122°43'10 9.9
2016-Jul-25 17:34N 48°32' W 122°34'5 0.3
2016-Jul-25 01:32N 48°27' W 122°31'0 0.0
2016-Jul-25 00:11N 48°27' W 122°31'0 0.0
2016-Jul-24 23:14N 48°27' W 122°31'0 0.0
2016-Jul-24 21:20N 48°27' W 122°31'0 0.0
2016-Jul-24 20:21N 48°27' W 122°31'0 0.0
2016-Jul-24 19:26N 48°27' W 122°31'0 0.0
2016-Jul-24 17:32N 48°27' W 122°31'0 0.0
2016-Jul-24 14:32N 48°27' W 122°31'0 0.0
2016-Jul-24 12:16N 48°27' W 122°31'0 0.0
2016-Jul-22 22:14N 48°27' W 122°31'  

Dump ship's entire track history